sensor_id;sensor_type;location;lat;lon;timestamp;temperature;humidity
59857;DHT22;45733;52.668;6.860;2023-04-25T00:01:20;7.30;99.90
59857;DHT22;45733;52.668;6.860;2023-04-25T00:03:47;7.10;99.90
59857;DHT22;45733;52.668;6.860;2023-04-25T00:06:12;7.00;99.90
59857;DHT22;45733;52.668;6.860;2023-04-25T00:08:39;7.10;99.90
59857;DHT22;45733;52.668;6.860;2023-04-25T00:11:04;7.00;99.90
59857;DHT22;45733;52.668;6.860;2023-04-25T00:13:30;6.90;99.90
59857;DHT22;45733;52.668;6.860;2023-04-25T00:15:55;7.00;99.90
59857;DHT22;45733;52.668;6.860;2023-04-25T00:18:25;7.10;99.90
59857;DHT22;45733;52.668;6.860;2023-04-25T00:20:54;7.10;99.90
59857;DHT22;45733;52.668;6.860;2023-04-25T00:23:19;7.10;99.90
59857;DHT22;45733;52.668;6.860;2023-04-25T00:25:45;7.20;99.90
59857;DHT22;45733;52.668;6.860;2023-04-25T00:28:11;7.10;99.90
59857;DHT22;45733;52.668;6.860;2023-04-25T00:30:37;7.00;99.90
59857;DHT22;45733;52.668;6.860;2023-04-25T00:33:03;6.90;99.90
59857;DHT22;45733;52.668;6.860;2023-04-25T00:35:28;6.90;99.90
59857;DHT22;45733;52.668;6.860;2023-04-25T00:37:54;6.80;99.90
59857;DHT22;45733;52.668;6.860;2023-04-25T00:40:20;6.80;99.90
59857;DHT22;45733;52.668;6.860;2023-04-25T00:42:46;6.80;99.90
59857;DHT22;45733;52.668;6.860;2023-04-25T00:45:12;6.90;99.90
59857;DHT22;45733;52.668;6.860;2023-04-25T00:47:39;6.70;99.90
59857;DHT22;45733;52.668;6.860;2023-04-25T00:50:05;6.70;99.90
59857;DHT22;45733;52.668;6.860;2023-04-25T00:52:31;6.60;99.90
59857;DHT22;45733;52.668;6.860;2023-04-25T00:54:57;6.60;99.90
59857;DHT22;45733;52.668;6.860;2023-04-25T00:57:22;6.40;99.90
59857;DHT22;45733;52.668;6.860;2023-04-25T00:59:48;6.50;99.90
59857;DHT22;45733;52.668;6.860;2023-04-25T01:02:16;6.40;99.90
59857;DHT22;45733;52.668;6.860;2023-04-25T01:04:41;6.30;99.90
59857;DHT22;45733;52.668;6.860;2023-04-25T01:07:07;6.30;99.90
59857;DHT22;45733;52.668;6.860;2023-04-25T01:09:33;6.20;99.90
59857;DHT22;45733;52.668;6.860;2023-04-25T01:11:59;6.10;99.90
59857;DHT22;45733;52.668;6.860;2023-04-25T01:14:25;6.10;99.90
59857;DHT22;45733;52.668;6.860;2023-04-25T01:16:51;6.10;99.90
59857;DHT22;45733;52.668;6.860;2023-04-25T01:19:18;6.10;99.90
59857;DHT22;45733;52.668;6.860;2023-04-25T01:21:44;6.00;99.90
59857;DHT22;45733;52.668;6.860;2023-04-25T01:24:10;6.10;99.90
59857;DHT22;45733;52.668;6.860;2023-04-25T01:26:36;6.10;99.90
59857;DHT22;45733;52.668;6.860;2023-04-25T01:29:03;6.20;99.90
59857;DHT22;45733;52.668;6.860;2023-04-25T01:31:29;6.20;99.90
59857;DHT22;45733;52.668;6.860;2023-04-25T01:33:55;6.10;99.90
59857;DHT22;45733;52.668;6.860;2023-04-25T01:36:21;6.10;99.90
59857;DHT22;45733;52.668;6.860;2023-04-25T01:38:47;6.10;99.90
59857;DHT22;45733;52.668;6.860;2023-04-25T01:41:13;6.00;99.90
59857;DHT22;45733;52.668;6.860;2023-04-25T01:43:39;6.10;99.90
59857;DHT22;45733;52.668;6.860;2023-04-25T01:46:05;6.00;99.90
59857;DHT22;45733;52.668;6.860;2023-04-25T01:48:31;6.00;99.90
59857;DHT22;45733;52.668;6.860;2023-04-25T01:50:56;6.00;99.90
59857;DHT22;45733;52.668;6.860;2023-04-25T01:53:22;6.00;99.90
59857;DHT22;45733;52.668;6.860;2023-04-25T01:55:48;5.90;99.90
59857;DHT22;45733;52.668;6.860;2023-04-25T01:58:13;5.90;99.90
59857;DHT22;45733;52.668;6.860;2023-04-25T02:00:39;5.80;99.90
59857;DHT22;45733;52.668;6.860;2023-04-25T02:03:06;5.80;99.90
59857;DHT22;45733;52.668;6.860;2023-04-25T02:05:38;5.70;99.90
59857;DHT22;45733;52.668;6.860;2023-04-25T02:08:05;5.70;99.90
59857;DHT22;45733;52.668;6.860;2023-04-25T02:10:31;5.80;99.90
59857;DHT22;45733;52.668;6.860;2023-04-25T02:12:56;5.70;99.90
59857;DHT22;45733;52.668;6.860;2023-04-25T02:15:22;5.60;99.90
59857;DHT22;45733;52.668;6.860;2023-04-25T02:17:47;5.70;99.90
59857;DHT22;45733;52.668;6.860;2023-04-25T02:20:14;5.70;99.90
59857;DHT22;45733;52.668;6.860;2023-04-25T02:22:41;5.70;99.90
59857;DHT22;45733;52.668;6.860;2023-04-25T02:25:07;5.70;99.90
59857;DHT22;45733;52.668;6.860;2023-04-25T02:27:33;5.70;99.90
59857;DHT22;45733;52.668;6.860;2023-04-25T02:29:58;5.70;99.90
59857;DHT22;45733;52.668;6.860;2023-04-25T02:32:24;5.80;99.90
59857;DHT22;45733;52.668;6.860;2023-04-25T02:34:49;5.80;99.90
59857;DHT22;45733;52.668;6.860;2023-04-25T02:37:15;5.90;99.90
59857;DHT22;45733;52.668;6.860;2023-04-25T02:39:41;5.90;99.90
59857;DHT22;45733;52.668;6.860;2023-04-25T02:42:06;5.80;99.90
59857;DHT22;45733;52.668;6.860;2023-04-25T02:44:32;5.90;99.90
59857;DHT22;45733;52.668;6.860;2023-04-25T02:46:57;6.00;99.90
59857;DHT22;45733;52.668;6.860;2023-04-25T02:49:23;6.00;99.90
59857;DHT22;45733;52.668;6.860;2023-04-25T02:51:48;6.00;99.90
59857;DHT22;45733;52.668;6.860;2023-04-25T02:54:14;5.90;99.90
59857;DHT22;45733;52.668;6.860;2023-04-25T02:56:39;6.00;99.90
59857;DHT22;45733;52.668;6.860;2023-04-25T02:59:05;6.00;99.90
59857;DHT22;45733;52.668;6.860;2023-04-25T03:01:31;6.00;99.90
59857;DHT22;45733;52.668;6.860;2023-04-25T03:03:56;6.00;99.90
59857;DHT22;45733;52.668;6.860;2023-04-25T03:06:22;6.00;99.90
59857;DHT22;45733;52.668;6.860;2023-04-25T03:08:47;6.00;99.90
59857;DHT22;45733;52.668;6.860;2023-04-25T03:11:13;6.00;99.90
59857;DHT22;45733;52.668;6.860;2023-04-25T03:13:38;6.10;99.90
59857;DHT22;45733;52.668;6.860;2023-04-25T03:16:04;6.00;99.90
59857;DHT22;45733;52.668;6.860;2023-04-25T03:18:29;6.10;99.90
59857;DHT22;45733;52.668;6.860;2023-04-25T03:20:55;6.00;99.90
59857;DHT22;45733;52.668;6.860;2023-04-25T03:23:21;6.10;99.90
59857;DHT22;45733;52.668;6.860;2023-04-25T03:25:46;6.10;99.90
59857;DHT22;45733;52.668;6.860;2023-04-25T03:28:12;6.10;99.90
59857;DHT22;45733;52.668;6.860;2023-04-25T03:30:38;6.10;99.90
59857;DHT22;45733;52.668;6.860;2023-04-25T03:33:03;6.00;99.90
59857;DHT22;45733;52.668;6.860;2023-04-25T03:35:29;6.00;99.90
59857;DHT22;45733;52.668;6.860;2023-04-25T03:37:54;6.00;99.90
59857;DHT22;45733;52.668;6.860;2023-04-25T03:40:20;6.00;99.90
59857;DHT22;45733;52.668;6.860;2023-04-25T03:42:45;6.00;99.90
59857;DHT22;45733;52.668;6.860;2023-04-25T03:45:11;6.00;99.90
59857;DHT22;45733;52.668;6.860;2023-04-25T03:47:37;6.00;99.90
59857;DHT22;45733;52.668;6.860;2023-04-25T03:50:02;6.00;99.90
59857;DHT22;45733;52.668;6.860;2023-04-25T03:52:28;6.00;99.90
59857;DHT22;45733;52.668;6.860;2023-04-25T03:54:53;6.00;99.90
59857;DHT22;45733;52.668;6.860;2023-04-25T03:57:19;5.90;99.90
59857;DHT22;45733;52.668;6.860;2023-04-25T03:59:45;5.90;99.90
59857;DHT22;45733;52.668;6.860;2023-04-25T04:02:10;5.90;99.90
59857;DHT22;45733;52.668;6.860;2023-04-25T04:04:36;5.90;99.90
59857;DHT22;45733;52.668;6.860;2023-04-25T04:07:02;6.00;99.90
59857;DHT22;45733;52.668;6.860;2023-04-25T04:09:28;5.90;99.90
59857;DHT22;45733;52.668;6.860;2023-04-25T04:11:53;5.90;99.90
59857;DHT22;45733;52.668;6.860;2023-04-25T04:14:19;5.90;99.90
59857;DHT22;45733;52.668;6.860;2023-04-25T04:16:44;5.90;99.90
59857;DHT22;45733;52.668;6.860;2023-04-25T04:19:10;5.90;99.90
59857;DHT22;45733;52.668;6.860;2023-04-25T04:21:36;5.90;99.90
59857;DHT22;45733;52.668;6.860;2023-04-25T04:24:01;5.90;99.90
59857;DHT22;45733;52.668;6.860;2023-04-25T04:26:27;5.90;99.90
59857;DHT22;45733;52.668;6.860;2023-04-25T04:28:53;5.90;99.90
59857;DHT22;45733;52.668;6.860;2023-04-25T04:31:22;5.80;99.90
59857;DHT22;45733;52.668;6.860;2023-04-25T04:33:49;5.80;99.90
59857;DHT22;45733;52.668;6.860;2023-04-25T04:36:15;5.80;99.90
59857;DHT22;45733;52.668;6.860;2023-04-25T04:38:41;5.80;99.90
59857;DHT22;45733;52.668;6.860;2023-04-25T04:41:07;5.80;99.90
59857;DHT22;45733;52.668;6.860;2023-04-25T04:43:33;5.70;99.90
59857;DHT22;45733;52.668;6.860;2023-04-25T04:46:02;5.80;99.90
59857;DHT22;45733;52.668;6.860;2023-04-25T04:48:28;5.70;99.90
59857;DHT22;45733;52.668;6.860;2023-04-25T04:50:54;5.80;99.90
59857;DHT22;45733;52.668;6.860;2023-04-25T04:53:20;5.70;99.90
59857;DHT22;45733;52.668;6.860;2023-04-25T04:55:45;5.80;99.90
59857;DHT22;45733;52.668;6.860;2023-04-25T04:58:11;5.80;99.90
59857;DHT22;45733;52.668;6.860;2023-04-25T05:00:37;5.80;99.90
59857;DHT22;45733;52.668;6.860;2023-04-25T05:03:03;5.80;99.90
59857;DHT22;45733;52.668;6.860;2023-04-25T05:05:30;5.70;99.90
59857;DHT22;45733;52.668;6.860;2023-04-25T05:07:56;5.80;99.90
59857;DHT22;45733;52.668;6.860;2023-04-25T05:10:21;5.80;99.90
59857;DHT22;45733;52.668;6.860;2023-04-25T05:12:47;5.80;99.90
59857;DHT22;45733;52.668;6.860;2023-04-25T05:15:13;5.80;99.90
59857;DHT22;45733;52.668;6.860;2023-04-25T05:17:38;5.80;99.90
59857;DHT22;45733;52.668;6.860;2023-04-25T05:20:05;5.90;99.90
59857;DHT22;45733;52.668;6.860;2023-04-25T05:22:31;5.90;99.90
59857;DHT22;45733;52.668;6.860;2023-04-25T05:24:56;6.00;99.90
59857;DHT22;45733;52.668;6.860;2023-04-25T05:27:22;6.00;99.90
59857;DHT22;45733;52.668;6.860;2023-04-25T05:29:47;6.00;99.90
59857;DHT22;45733;52.668;6.860;2023-04-25T05:32:13;6.00;99.90
59857;DHT22;45733;52.668;6.860;2023-04-25T05:34:38;6.10;99.90
59857;DHT22;45733;52.668;6.860;2023-04-25T05:37:04;6.10;99.90
59857;DHT22;45733;52.668;6.860;2023-04-25T05:39:30;6.10;99.90
59857;DHT22;45733;52.668;6.860;2023-04-25T05:41:55;6.10;99.90
59857;DHT22;45733;52.668;6.860;2023-04-25T05:44:21;6.20;99.90
59857;DHT22;45733;52.668;6.860;2023-04-25T05:46:46;6.30;99.90
59857;DHT22;45733;52.668;6.860;2023-04-25T05:49:12;6.30;99.90
59857;DHT22;45733;52.668;6.860;2023-04-25T05:51:38;6.40;99.90
59857;DHT22;45733;52.668;6.860;2023-04-25T05:54:03;6.40;99.90
59857;DHT22;45733;52.668;6.860;2023-04-25T05:56:29;6.50;99.90
59857;DHT22;45733;52.668;6.860;2023-04-25T05:58:55;6.60;99.90
59857;DHT22;45733;52.668;6.860;2023-04-25T06:01:21;6.70;99.90
59857;DHT22;45733;52.668;6.860;2023-04-25T06:03:47;6.90;99.90
59857;DHT22;45733;52.668;6.860;2023-04-25T06:06:12;7.30;99.90
59857;DHT22;45733;52.668;6.860;2023-04-25T06:08:38;7.50;99.90
59857;DHT22;45733;52.668;6.860;2023-04-25T06:11:04;7.60;99.90
59857;DHT22;45733;52.668;6.860;2023-04-25T06:13:30;7.80;99.90
59857;DHT22;45733;52.668;6.860;2023-04-25T06:15:55;8.10;99.90
59857;DHT22;45733;52.668;6.860;2023-04-25T06:18:21;8.20;99.90
59857;DHT22;45733;52.668;6.860;2023-04-25T06:20:46;8.50;99.90
59857;DHT22;45733;52.668;6.860;2023-04-25T06:23:12;8.70;99.90
59857;DHT22;45733;52.668;6.860;2023-04-25T06:25:37;8.70;99.90
59857;DHT22;45733;52.668;6.860;2023-04-25T06:28:03;8.60;99.90
59857;DHT22;45733;52.668;6.860;2023-04-25T06:30:28;8.50;99.90
59857;DHT22;45733;52.668;6.860;2023-04-25T06:32:55;8.40;99.90
59857;DHT22;45733;52.668;6.860;2023-04-25T06:35:20;8.30;99.90
59857;DHT22;45733;52.668;6.860;2023-04-25T06:37:46;8.30;99.90
59857;DHT22;45733;52.668;6.860;2023-04-25T06:40:12;8.20;99.90
59857;DHT22;45733;52.668;6.860;2023-04-25T06:42:37;8.20;99.90
59857;DHT22;45733;52.668;6.860;2023-04-25T06:45:03;8.00;99.90
59857;DHT22;45733;52.668;6.860;2023-04-25T06:47:28;8.10;99.90
59857;DHT22;45733;52.668;6.860;2023-04-25T06:49:55;8.10;99.90
59857;DHT22;45733;52.668;6.860;2023-04-25T06:52:20;8.10;99.90
59857;DHT22;45733;52.668;6.860;2023-04-25T06:54:46;8.20;99.90
59857;DHT22;45733;52.668;6.860;2023-04-25T06:57:12;8.30;99.90
59857;DHT22;45733;52.668;6.860;2023-04-25T06:59:37;8.30;99.90
59857;DHT22;45733;52.668;6.860;2023-04-25T07:02:03;8.30;99.90
59857;DHT22;45733;52.668;6.860;2023-04-25T07:04:29;8.20;99.90
59857;DHT22;45733;52.668;6.860;2023-04-25T07:06:55;8.10;99.90
59857;DHT22;45733;52.668;6.860;2023-04-25T07:09:21;8.20;99.90
59857;DHT22;45733;52.668;6.860;2023-04-25T07:11:47;8.40;99.90
59857;DHT22;45733;52.668;6.860;2023-04-25T07:14:13;8.70;99.90
59857;DHT22;45733;52.668;6.860;2023-04-25T07:16:38;8.90;99.90
59857;DHT22;45733;52.668;6.860;2023-04-25T07:19:04;9.10;99.90
59857;DHT22;45733;52.668;6.860;2023-04-25T07:21:29;9.30;99.90
59857;DHT22;45733;52.668;6.860;2023-04-25T07:23:57;9.40;99.90
59857;DHT22;45733;52.668;6.860;2023-04-25T07:26:22;9.60;99.90
59857;DHT22;45733;52.668;6.860;2023-04-25T07:28:48;9.70;99.90
59857;DHT22;45733;52.668;6.860;2023-04-25T07:31:16;9.80;99.90
59857;DHT22;45733;52.668;6.860;2023-04-25T07:33:43;10.40;99.90
59857;DHT22;45733;52.668;6.860;2023-04-25T07:36:10;10.40;99.90
59857;DHT22;45733;52.668;6.860;2023-04-25T07:38:35;10.30;99.90
59857;DHT22;45733;52.668;6.860;2023-04-25T07:41:01;10.20;99.90
59857;DHT22;45733;52.668;6.860;2023-04-25T07:43:27;9.50;99.90
59857;DHT22;45733;52.668;6.860;2023-04-25T07:45:52;9.60;99.90
59857;DHT22;45733;52.668;6.860;2023-04-25T07:48:18;9.50;99.90
59857;DHT22;45733;52.668;6.860;2023-04-25T07:50:44;9.50;99.90
59857;DHT22;45733;52.668;6.860;2023-04-25T07:53:09;9.70;99.90
59857;DHT22;45733;52.668;6.860;2023-04-25T07:55:35;9.30;99.90
59857;DHT22;45733;52.668;6.860;2023-04-25T07:58:01;9.40;99.90
59857;DHT22;45733;52.668;6.860;2023-04-25T08:00:28;9.50;99.90
59857;DHT22;45733;52.668;6.860;2023-04-25T08:02:53;9.60;99.90
59857;DHT22;45733;52.668;6.860;2023-04-25T08:05:19;9.70;99.90
59857;DHT22;45733;52.668;6.860;2023-04-25T08:07:45;9.70;99.90
59857;DHT22;45733;52.668;6.860;2023-04-25T08:10:10;9.40;99.90
59857;DHT22;45733;52.668;6.860;2023-04-25T08:12:36;9.80;99.90
59857;DHT22;45733;52.668;6.860;2023-04-25T08:15:01;9.70;99.90
59857;DHT22;45733;52.668;6.860;2023-04-25T08:17:27;10.30;99.90
59857;DHT22;45733;52.668;6.860;2023-04-25T08:19:52;10.40;99.90
59857;DHT22;45733;52.668;6.860;2023-04-25T08:22:18;10.40;99.90
59857;DHT22;45733;52.668;6.860;2023-04-25T08:24:43;10.50;99.90
59857;DHT22;45733;52.668;6.860;2023-04-25T08:27:09;10.30;99.90
59857;DHT22;45733;52.668;6.860;2023-04-25T08:29:35;10.40;99.90
59857;DHT22;45733;52.668;6.860;2023-04-25T08:32:00;10.40;99.90
59857;DHT22;45733;52.668;6.860;2023-04-25T08:34:26;10.20;99.90
59857;DHT22;45733;52.668;6.860;2023-04-25T08:36:52;10.60;99.90
59857;DHT22;45733;52.668;6.860;2023-04-25T08:39:17;10.90;99.90
59857;DHT22;45733;52.668;6.860;2023-04-25T08:41:43;11.10;99.90
59857;DHT22;45733;52.668;6.860;2023-04-25T08:44:10;11.10;99.90
59857;DHT22;45733;52.668;6.860;2023-04-25T08:46:37;11.60;99.90
59857;DHT22;45733;52.668;6.860;2023-04-25T08:49:03;11.10;99.90
59857;DHT22;45733;52.668;6.860;2023-04-25T08:51:30;11.00;99.90
59857;DHT22;45733;52.668;6.860;2023-04-25T08:53:57;10.30;99.90
59857;DHT22;45733;52.668;6.860;2023-04-25T08:56:29;10.10;99.90
59857;DHT22;45733;52.668;6.860;2023-04-25T08:58:54;10.50;99.90
59857;DHT22;45733;52.668;6.860;2023-04-25T09:01:20;10.70;99.90
59857;DHT22;45733;52.668;6.860;2023-04-25T09:03:46;10.50;99.90
59857;DHT22;45733;52.668;6.860;2023-04-25T09:06:12;11.30;99.90
59857;DHT22;45733;52.668;6.860;2023-04-25T09:08:38;10.80;99.90
59857;DHT22;45733;52.668;6.860;2023-04-25T09:11:06;10.80;99.90
59857;DHT22;45733;52.668;6.860;2023-04-25T09:13:31;10.90;99.90
59857;DHT22;45733;52.668;6.860;2023-04-25T09:15:57;10.90;99.90
59857;DHT22;45733;52.668;6.860;2023-04-25T09:18:27;10.50;99.90
59857;DHT22;45733;52.668;6.860;2023-04-25T09:20:53;11.40;99.90
59857;DHT22;45733;52.668;6.860;2023-04-25T09:23:19;11.30;99.90
59857;DHT22;45733;52.668;6.860;2023-04-25T09:25:50;11.40;99.90
59857;DHT22;45733;52.668;6.860;2023-04-25T09:28:17;11.70;99.90
59857;DHT22;45733;52.668;6.860;2023-04-25T09:30:47;11.70;99.90
59857;DHT22;45733;52.668;6.860;2023-04-25T09:33:13;11.70;99.90
59857;DHT22;45733;52.668;6.860;2023-04-25T09:35:42;11.70;99.90
59857;DHT22;45733;52.668;6.860;2023-04-25T09:38:12;11.70;99.90
59857;DHT22;45733;52.668;6.860;2023-04-25T09:40:44;12.00;99.90
59857;DHT22;45733;52.668;6.860;2023-04-25T09:43:18;12.10;99.90
59857;DHT22;45733;52.668;6.860;2023-04-25T09:45:43;12.00;99.90
59857;DHT22;45733;52.668;6.860;2023-04-25T09:48:11;12.10;99.90
59857;DHT22;45733;52.668;6.860;2023-04-25T09:50:37;12.30;99.90
59857;DHT22;45733;52.668;6.860;2023-04-25T09:53:03;12.40;99.90
59857;DHT22;45733;52.668;6.860;2023-04-25T09:55:29;12.60;99.90
59857;DHT22;45733;52.668;6.860;2023-04-25T09:57:55;12.20;99.90
59857;DHT22;45733;52.668;6.860;2023-04-25T10:00:22;11.60;99.90
59857;DHT22;45733;52.668;6.860;2023-04-25T10:02:48;10.30;99.90
59857;DHT22;45733;52.668;6.860;2023-04-25T10:05:15;8.90;99.90
59857;DHT22;45733;52.668;6.860;2023-04-25T10:07:42;8.30;99.90
59857;DHT22;45733;52.668;6.860;2023-04-25T10:10:07;8.00;99.90
59857;DHT22;45733;52.668;6.860;2023-04-25T10:12:33;7.70;99.90
59857;DHT22;45733;52.668;6.860;2023-04-25T10:15:00;7.70;99.90
59857;DHT22;45733;52.668;6.860;2023-04-25T10:17:26;7.50;99.90
59857;DHT22;45733;52.668;6.860;2023-04-25T10:19:52;7.40;99.90
59857;DHT22;45733;52.668;6.860;2023-04-25T10:22:32;7.10;99.90
59857;DHT22;45733;52.668;6.860;2023-04-25T10:24:58;7.30;99.90
59857;DHT22;45733;52.668;6.860;2023-04-25T10:27:24;7.30;99.90
59857;DHT22;45733;52.668;6.860;2023-04-25T10:30:23;7.60;99.90
59857;DHT22;45733;52.668;6.860;2023-04-25T10:32:41;8.00;99.90
59857;DHT22;45733;52.668;6.860;2023-04-25T10:35:11;8.50;99.90
59857;DHT22;45733;52.668;6.860;2023-04-25T10:37:37;9.00;99.90
59857;DHT22;45733;52.668;6.860;2023-04-25T10:40:09;9.60;99.90
59857;DHT22;45733;52.668;6.860;2023-04-25T10:42:35;9.80;99.90
59857;DHT22;45733;52.668;6.860;2023-04-25T10:45:04;9.50;99.90
59857;DHT22;45733;52.668;6.860;2023-04-25T10:47:36;10.00;99.90
59857;DHT22;45733;52.668;6.860;2023-04-25T10:50:08;10.30;99.90
59857;DHT22;45733;52.668;6.860;2023-04-25T10:52:34;9.90;99.90
59857;DHT22;45733;52.668;6.860;2023-04-25T10:54:59;9.20;99.90
59857;DHT22;45733;52.668;6.860;2023-04-25T10:57:28;8.90;99.90
59857;DHT22;45733;52.668;6.860;2023-04-25T10:59:58;8.40;99.90
59857;DHT22;45733;52.668;6.860;2023-04-25T11:02:26;8.50;99.90
59857;DHT22;45733;52.668;6.860;2023-04-25T11:04:52;8.50;99.90
59857;DHT22;45733;52.668;6.860;2023-04-25T11:07:35;8.60;99.90
59857;DHT22;45733;52.668;6.860;2023-04-25T11:10:03;8.60;99.90
59857;DHT22;45733;52.668;6.860;2023-04-25T11:12:29;8.80;99.90
59857;DHT22;45733;52.668;6.860;2023-04-25T11:15:05;9.00;99.90
59857;DHT22;45733;52.668;6.860;2023-04-25T11:17:31;9.00;99.90
59857;DHT22;45733;52.668;6.860;2023-04-25T11:19:57;9.50;99.90
59857;DHT22;45733;52.668;6.860;2023-04-25T11:22:23;9.70;99.90
59857;DHT22;45733;52.668;6.860;2023-04-25T11:24:48;9.70;99.90
59857;DHT22;45733;52.668;6.860;2023-04-25T11:27:14;10.30;99.90
59857;DHT22;45733;52.668;6.860;2023-04-25T11:29:40;10.60;99.90
59857;DHT22;45733;52.668;6.860;2023-04-25T11:32:06;10.30;99.90
59857;DHT22;45733;52.668;6.860;2023-04-25T11:34:32;9.90;99.90
59857;DHT22;45733;52.668;6.860;2023-04-25T11:37:01;9.90;99.90
59857;DHT22;45733;52.668;6.860;2023-04-25T11:39:27;9.80;99.90
59857;DHT22;45733;52.668;6.860;2023-04-25T11:41:53;10.00;99.90
59857;DHT22;45733;52.668;6.860;2023-04-25T11:44:19;10.80;99.90
59857;DHT22;45733;52.668;6.860;2023-04-25T11:46:45;11.30;99.90
59857;DHT22;45733;52.668;6.860;2023-04-25T11:49:10;11.70;99.90
59857;DHT22;45733;52.668;6.860;2023-04-25T11:51:40;11.90;99.90
59857;DHT22;45733;52.668;6.860;2023-04-25T11:54:06;11.80;99.90
59857;DHT22;45733;52.668;6.860;2023-04-25T11:56:31;12.20;99.90
59857;DHT22;45733;52.668;6.860;2023-04-25T11:59:01;12.30;99.90
59857;DHT22;45733;52.668;6.860;2023-04-25T12:01:31;12.60;99.90
59857;DHT22;45733;52.668;6.860;2023-04-25T12:03:57;12.80;99.90
59857;DHT22;45733;52.668;6.860;2023-04-25T12:06:27;12.60;99.90
59857;DHT22;45733;52.668;6.860;2023-04-25T12:09:03;12.00;99.90
59857;DHT22;45733;52.668;6.860;2023-04-25T12:11:32;12.20;99.90
59857;DHT22;45733;52.668;6.860;2023-04-25T12:14:01;12.30;99.90
59857;DHT22;45733;52.668;6.860;2023-04-25T12:16:27;12.50;99.90
59857;DHT22;45733;52.668;6.860;2023-04-25T12:18:52;12.80;99.90
59857;DHT22;45733;52.668;6.860;2023-04-25T12:21:20;12.10;99.90
59857;DHT22;45733;52.668;6.860;2023-04-25T12:23:45;11.30;99.90
59857;DHT22;45733;52.668;6.860;2023-04-25T12:26:11;11.30;99.90
59857;DHT22;45733;52.668;6.860;2023-04-25T12:28:36;11.00;99.90
59857;DHT22;45733;52.668;6.860;2023-04-25T12:31:06;10.30;99.90
59857;DHT22;45733;52.668;6.860;2023-04-25T12:33:37;9.80;99.90
59857;DHT22;45733;52.668;6.860;2023-04-25T12:36:03;9.40;99.90
59857;DHT22;45733;52.668;6.860;2023-04-25T12:38:40;9.70;99.90
59857;DHT22;45733;52.668;6.860;2023-04-25T12:41:06;9.90;99.90
59857;DHT22;45733;52.668;6.860;2023-04-25T12:43:32;10.20;99.90
59857;DHT22;45733;52.668;6.860;2023-04-25T12:45:57;10.50;99.90
59857;DHT22;45733;52.668;6.860;2023-04-25T12:48:23;11.20;99.90
59857;DHT22;45733;52.668;6.860;2023-04-25T12:50:49;11.20;99.90
59857;DHT22;45733;52.668;6.860;2023-04-25T12:53:22;11.40;99.90
59857;DHT22;45733;52.668;6.860;2023-04-25T12:55:47;11.40;99.90
59857;DHT22;45733;52.668;6.860;2023-04-25T12:58:14;11.40;99.90
59857;DHT22;45733;52.668;6.860;2023-04-25T13:00:39;11.70;99.90
59857;DHT22;45733;52.668;6.860;2023-04-25T13:03:05;11.50;99.90
59857;DHT22;45733;52.668;6.860;2023-04-25T13:05:31;11.20;99.90
59857;DHT22;45733;52.668;6.860;2023-04-25T13:07:56;11.70;99.90
59857;DHT22;45733;52.668;6.860;2023-04-25T13:10:22;11.90;99.90
59857;DHT22;45733;52.668;6.860;2023-04-25T13:12:48;12.00;99.90
59857;DHT22;45733;52.668;6.860;2023-04-25T13:15:13;12.30;99.90
59857;DHT22;45733;52.668;6.860;2023-04-25T13:17:41;11.90;99.90
59857;DHT22;45733;52.668;6.860;2023-04-25T13:20:07;11.80;99.90
59857;DHT22;45733;52.668;6.860;2023-04-25T13:22:34;11.80;99.90
59857;DHT22;45733;52.668;6.860;2023-04-25T13:25:02;12.10;99.90
59857;DHT22;45733;52.668;6.860;2023-04-25T13:27:28;11.90;99.90
59857;DHT22;45733;52.668;6.860;2023-04-25T13:29:54;12.00;99.90
59857;DHT22;45733;52.668;6.860;2023-04-25T13:32:19;11.60;99.90
59857;DHT22;45733;52.668;6.860;2023-04-25T13:34:45;11.80;99.90
59857;DHT22;45733;52.668;6.860;2023-04-25T13:37:10;11.60;99.90
59857;DHT22;45733;52.668;6.860;2023-04-25T13:39:36;12.20;99.90
59857;DHT22;45733;52.668;6.860;2023-04-25T13:42:02;12.30;99.90
59857;DHT22;45733;52.668;6.860;2023-04-25T13:44:27;12.30;99.90
59857;DHT22;45733;52.668;6.860;2023-04-25T13:46:53;11.70;99.90
59857;DHT22;45733;52.668;6.860;2023-04-25T13:49:18;11.90;99.90
59857;DHT22;45733;52.668;6.860;2023-04-25T13:51:44;12.10;99.90
59857;DHT22;45733;52.668;6.860;2023-04-25T13:54:10;11.70;99.90
59857;DHT22;45733;52.668;6.860;2023-04-25T13:56:35;11.50;99.90
59857;DHT22;45733;52.668;6.860;2023-04-25T13:59:01;11.40;99.90
59857;DHT22;45733;52.668;6.860;2023-04-25T14:01:27;11.20;99.90
59857;DHT22;45733;52.668;6.860;2023-04-25T14:03:55;10.50;99.90
59857;DHT22;45733;52.668;6.860;2023-04-25T14:06:21;10.70;99.90
59857;DHT22;45733;52.668;6.860;2023-04-25T14:08:49;10.70;99.90
59857;DHT22;45733;52.668;6.860;2023-04-25T14:11:15;11.00;99.90
59857;DHT22;45733;52.668;6.860;2023-04-25T14:13:43;11.10;99.90
59857;DHT22;45733;52.668;6.860;2023-04-25T14:16:09;11.10;99.90
59857;DHT22;45733;52.668;6.860;2023-04-25T14:18:34;11.30;99.90
59857;DHT22;45733;52.668;6.860;2023-04-25T14:21:00;12.20;99.90
59857;DHT22;45733;52.668;6.860;2023-04-25T14:23:26;12.30;99.90
59857;DHT22;45733;52.668;6.860;2023-04-25T14:25:51;11.90;99.90
59857;DHT22;45733;52.668;6.860;2023-04-25T14:28:17;12.00;99.90
59857;DHT22;45733;52.668;6.860;2023-04-25T14:30:43;11.80;99.90
59857;DHT22;45733;52.668;6.860;2023-04-25T14:33:08;11.80;99.90
59857;DHT22;45733;52.668;6.860;2023-04-25T14:35:34;12.40;99.90
59857;DHT22;45733;52.668;6.860;2023-04-25T14:38:00;12.50;99.90
59857;DHT22;45733;52.668;6.860;2023-04-25T14:40:26;11.90;99.90
59857;DHT22;45733;52.668;6.860;2023-04-25T14:42:51;12.40;99.90
59857;DHT22;45733;52.668;6.860;2023-04-25T14:45:17;12.50;99.90
59857;DHT22;45733;52.668;6.860;2023-04-25T14:47:43;11.60;99.90
59857;DHT22;45733;52.668;6.860;2023-04-25T14:50:08;11.50;99.90
59857;DHT22;45733;52.668;6.860;2023-04-25T14:52:34;11.10;99.90
59857;DHT22;45733;52.668;6.860;2023-04-25T14:55:00;10.80;99.90
59857;DHT22;45733;52.668;6.860;2023-04-25T14:57:30;10.40;99.90
59857;DHT22;45733;52.668;6.860;2023-04-25T14:59:56;10.30;99.90
59857;DHT22;45733;52.668;6.860;2023-04-25T15:02:21;10.10;99.90
59857;DHT22;45733;52.668;6.860;2023-04-25T15:04:47;10.00;99.90
59857;DHT22;45733;52.668;6.860;2023-04-25T15:07:13;10.10;99.90
59857;DHT22;45733;52.668;6.860;2023-04-25T15:09:38;10.00;99.90
59857;DHT22;45733;52.668;6.860;2023-04-25T15:12:04;9.90;99.90
59857;DHT22;45733;52.668;6.860;2023-04-25T15:14:29;9.80;99.90
59857;DHT22;45733;52.668;6.860;2023-04-25T15:16:55;9.50;99.90
59857;DHT22;45733;52.668;6.860;2023-04-25T15:19:20;9.40;99.90
59857;DHT22;45733;52.668;6.860;2023-04-25T15:21:46;9.40;99.90
59857;DHT22;45733;52.668;6.860;2023-04-25T15:24:12;9.30;99.90
59857;DHT22;45733;52.668;6.860;2023-04-25T15:26:39;9.40;99.90
59857;DHT22;45733;52.668;6.860;2023-04-25T15:29:05;9.70;99.90
59857;DHT22;45733;52.668;6.860;2023-04-25T15:31:31;9.80;99.90
59857;DHT22;45733;52.668;6.860;2023-04-25T15:33:57;9.70;99.90